Time;durP1;ratioP1;P1;durP2;ratioP2;P2;SDS_P1;SDS_P2;PMS_P1;PMS_P2;Temp;Humidity;BMP_temperature;BMP_pressure;BME280_temperature;BME280_humidity;BME280_pressure;Samples;Min_cycle;Max_cycle;Signal;HPM_P1;HPM_P2
2022/01/19 00:01:27;;;;;;;6.30;3.22;;;20.40;55.00;;;;;;5032834;28;20081;-59
2022/01/19 00:03:52;;;;;;;7.15;2.95;;;20.30;54.90;;;;;;5033007;28;20112;-60
2022/01/19 00:06:18;;;;;;;7.10;3.35;;;20.30;54.90;;;;;;5031976;28;20489;-60
2022/01/19 00:08:43;;;;;;;8.30;3.45;;;20.30;54.90;;;;;;5032821;28;20063;-59
2022/01/19 00:11:09;;;;;;;6.78;3.58;;;20.30;54.90;;;;;;5031069;28;20116;-60
2022/01/19 00:13:35;;;;;;;7.03;3.20;;;20.30;54.90;;;;;;5032760;28;20103;-60
2022/01/19 00:16:00;;;;;;;7.90;3.15;;;20.30;54.80;;;;;;5032801;28;20041;-60
2022/01/19 00:18:26;;;;;;;7.40;3.33;;;20.20;54.70;;;;;;5031296;28;20041;-60
2022/01/19 00:20:52;;;;;;;6.15;3.30;;;20.30;54.80;;;;;;5032626;28;20042;-60
2022/01/19 00:23:18;;;;;;;7.90;3.28;;;20.20;54.70;;;;;;5032261;28;20455;-60
2022/01/19 00:25:45;;;;;;;6.38;3.08;;;20.20;54.70;;;;;;5032421;28;20096;-60
2022/01/19 00:28:10;;;;;;;6.53;3.40;;;20.20;54.60;;;;;;5032508;28;20132;-60
2022/01/19 00:30:36;;;;;;;7.82;3.45;;;20.20;54.60;;;;;;5032196;28;20124;-60
2022/01/19 00:33:01;;;;;;;9.35;3.47;;;20.20;54.70;;;;;;5031024;28;20049;-60
2022/01/19 00:35:27;;;;;;;5.93;3.10;;;20.20;54.60;;;;;;5032489;28;20477;-60
2022/01/19 00:37:52;;;;;;;8.30;3.40;;;20.20;54.60;;;;;;5032345;28;20045;-60
2022/01/19 00:40:18;;;;;;;6.68;3.50;;;20.20;54.60;;;;;;5031603;28;20049;-60
2022/01/19 00:42:44;;;;;;;7.18;3.40;;;20.20;54.60;;;;;;5032672;28;20107;-60
2022/01/19 00:45:10;;;;;;;6.63;3.08;;;20.10;54.60;;;;;;5031951;28;20534;-59
2022/01/19 00:47:35;;;;;;;6.60;3.20;;;20.20;54.60;;;;;;5031323;28;20037;-60
2022/01/19 00:50:01;;;;;;;9.45;3.50;;;20.10;54.50;;;;;;5032415;28;20405;-60
2022/01/19 00:52:26;;;;;;;8.82;3.03;;;20.10;54.50;;;;;;5031679;28;20152;-60
2022/01/19 00:54:52;;;;;;;7.15;3.30;;;20.10;54.50;;;;;;5031474;28;20045;-60
2022/01/19 00:57:17;;;;;;;8.10;3.05;;;20.10;54.50;;;;;;5031795;28;20076;-60
2022/01/19 00:59:43;;;;;;;6.13;3.03;;;20.10;54.50;;;;;;5032123;28;20505;-60
2022/01/19 01:02:08;;;;;;;7.90;3.08;;;20.10;54.50;;;;;;5031598;28;20100;-60
2022/01/19 01:04:34;;;;;;;6.72;3.10;;;20.00;54.50;;;;;;5031912;28;20103;-60
2022/01/19 01:06:59;;;;;;;5.60;2.83;;;20.10;54.50;;;;;;5032378;28;20045;-60
2022/01/19 01:09:25;;;;;;;6.65;2.75;;;20.10;54.40;;;;;;5031342;28;20049;-60
2022/01/19 01:18:16;;;;;;;6.65;3.03;;;20.10;54.50;;;;;;5032664;28;20041;-60
2022/01/19 01:19:56;;;;;;;5.80;2.95;;;20.10;54.50;;;;;;5031936;28;20046;-60
2022/01/19 01:22:22;;;;;;;7.00;3.08;;;20.00;54.40;;;;;;5031333;28;20041;-60
2022/01/19 01:24:47;;;;;;;5.93;3.05;;;20.00;54.40;;;;;;5014311;28;20401;-59
2022/01/19 01:27:13;;;;;;;7.90;3.20;;;20.00;54.50;;;;;;5031928;28;20056;-60
2022/01/19 01:29:40;;;;;;;8.48;3.03;;;20.00;54.40;;;;;;5031940;28;20076;-60
2022/01/19 01:32:07;;;;;;;8.10;3.60;;;20.00;54.40;;;;;;5031879;28;20045;-60
2022/01/19 01:34:32;;;;;;;6.65;3.10;;;20.00;54.40;;;;;;5031754;28;20049;-60
2022/01/19 01:36:58;;;;;;;5.82;2.70;;;20.00;54.40;;;;;;5013772;28;20091;-60
2022/01/19 01:39:23;;;;;;;6.82;2.85;;;20.00;54.30;;;;;;5031628;28;20052;-60
2022/01/19 01:41:48;;;;;;;7.68;2.95;;;20.00;54.30;;;;;;5031886;28;20488;-60
2022/01/19 01:44:14;;;;;;;6.18;3.15;;;19.90;54.20;;;;;;5033274;28;20128;-60
2022/01/19 01:46:47;;;;;;;8.55;2.78;;;19.90;54.20;;;;;;5035582;28;20041;-60
2022/01/19 01:49:20;;;;;;;6.05;2.45;;;19.90;54.20;;;;;;5035035;28;20046;-60
2022/01/19 01:54:29;;;;;;;6.20;2.65;;;19.90;54.20;;;;;;5034990;28;20049;-60
2022/01/19 01:56:55;;;;;;;6.57;2.60;;;19.90;54.20;;;;;;5034668;28;20050;-59
2022/01/19 01:59:21;;;;;;;7.85;3.20;;;19.90;54.10;;;;;;5034901;28;20057;-60
2022/01/19 02:01:46;;;;;;;6.43;2.70;;;19.90;54.10;;;;;;5035350;28;20138;-60
2022/01/19 02:04:12;;;;;;;6.47;2.70;;;19.90;54.10;;;;;;5033861;28;20396;-60
2022/01/19 02:06:55;;;;;;;7.55;3.13;;;19.90;54.10;;;;;;5034382;28;20053;-59
2022/01/19 02:09:24;;;;;;;7.13;2.90;;;19.90;54.00;;;;;;5035049;28;20065;-59
2022/01/19 02:23:01;;;;;;;6.15;2.70;;;19.80;53.80;;;;;;5015095;28;20046;-60
2022/01/19 02:25:30;;;;;;;7.03;3.05;;;19.80;53.90;;;;;;5033915;28;20045;-60
2022/01/19 02:31:14;;;;;;;6.65;2.67;;;19.80;53.90;;;;;;5034593;28;20477;-59
2022/01/19 02:41:40;;;;;;;6.78;3.05;;;19.70;53.90;;;;;;5034042;28;20041;-60
2022/01/19 02:44:09;;;;;;;5.13;2.33;;;19.70;53.90;;;;;;5034279;28;20045;-60
2022/01/19 02:49:15;;;;;;;6.75;2.90;;;19.70;53.90;;;;;;5016653;28;20056;-60
2022/01/19 02:51:52;;;;;;;6.22;2.47;;;19.70;54.00;;;;;;5034276;28;20524;-60
2022/01/19 02:54:19;;;;;;;5.30;2.40;;;19.70;53.90;;;;;;5032804;28;20050;-60
2022/01/19 02:56:49;;;;;;;5.82;2.60;;;19.70;53.90;;;;;;5034291;28;20052;-60
2022/01/19 03:06:31;;;;;;;5.95;2.70;;;19.70;53.90;;;;;;5014778;28;20050;-60
2022/01/19 03:10:14;;;;;;;5.50;2.85;;;19.60;53.70;;;;;;5013978;28;20050;-60
2022/01/19 03:12:40;;;;;;;5.15;2.47;;;19.60;53.70;;;;;;5014104;28;20064;-59
2022/01/19 03:15:10;;;;;;;6.68;2.70;;;19.60;53.80;;;;;;5013391;28;20042;-60
2022/01/19 03:17:35;;;;;;;7.63;2.60;;;19.60;53.80;;;;;;5013807;28;20056;-60
2022/01/19 03:20:01;;;;;;;6.55;2.63;;;19.60;53.70;;;;;;5013992;28;20042;-60
2022/01/19 03:22:34;;;;;;;4.85;2.53;;;19.60;54.40;;;;;;5013083;28;20052;-60
2022/01/19 03:25:00;;;;;;;5.93;2.40;;;19.70;53.80;;;;;;4996261;28;20053;-60
2022/01/19 03:27:25;;;;;;;4.82;2.60;;;19.60;53.70;;;;;;5013598;28;20038;-60
2022/01/19 03:29:51;;;;;;;5.53;2.60;;;19.70;54.20;;;;;;5013138;28;20046;-60
2022/01/19 03:32:16;;;;;;;6.80;2.95;;;19.70;53.70;;;;;;5013246;28;20046;-60
2022/01/19 03:34:42;;;;;;;4.53;2.50;;;19.70;53.70;;;;;;5013688;28;20049;-60
2022/01/19 03:37:07;;;;;;;3.97;2.08;;;19.70;53.70;;;;;;5012851;28;20503;-61
2022/01/19 03:39:33;;;;;;;4.65;2.20;;;19.70;53.80;;;;;;5012345;28;20121;-60
2022/01/19 03:41:58;;;;;;;7.20;2.50;;;19.70;53.70;;;;;;5012494;28;20204;-60
2022/01/19 03:44:24;;;;;;;5.93;2.40;;;19.70;53.70;;;;;;5012531;28;20393;-60
2022/01/19 03:46:58;;;;;;;4.35;2.10;;;19.70;53.60;;;;;;5013722;28;20469;-60
2022/01/19 03:49:25;;;;;;;4.03;2.22;;;19.70;53.60;;;;;;5012385;28;20037;-59
2022/01/19 03:51:58;;;;;;;4.82;2.15;;;19.70;53.50;;;;;;5013449;28;20497;-60
2022/01/19 03:54:25;;;;;;;5.05;2.58;;;19.70;53.50;;;;;;5012806;28;20074;-60
2022/01/19 03:56:50;;;;;;;5.53;2.40;;;19.80;53.50;;;;;;5012272;28;20052;-60
2022/01/19 03:59:15;;;;;;;4.57;2.30;;;19.80;53.50;;;;;;5012889;28;20053;-60
2022/01/19 04:01:42;;;;;;;4.43;2.28;;;19.80;53.40;;;;;;5013302;28;20137;-60
2022/01/19 04:06:56;;;;;;;5.25;2.15;;;19.80;53.40;;;;;;5012533;28;20046;-60
2022/01/19 04:09:22;;;;;;;4.95;2.38;;;19.80;53.40;;;;;;5012705;28;20077;-60
2022/01/19 04:11:48;;;;;;;4.90;2.33;;;19.80;53.40;;;;;;5012448;28;20119;-60
2022/01/19 04:14:24;;;;;;;3.58;2.00;;;19.90;53.40;;;;;;5012601;28;20089;-60
2022/01/19 04:16:51;;;;;;;4.03;2.05;;;19.90;53.20;;;;;;5013294;28;20064;-60
2022/01/19 04:21:51;;;;;;;4.07;1.80;;;19.90;53.20;;;;;;5012789;28;20136;-59
2022/01/19 04:24:17;;;;;;;3.85;2.00;;;19.90;53.20;;;;;;5012953;28;20172;-59
2022/01/19 04:26:44;;;;;;;6.00;2.53;;;19.90;53.20;;;;;;5012464;28;20473;-59
2022/01/19 04:29:10;;;;;;;5.03;2.25;;;19.90;53.10;;;;;;5012890;28;20045;-60
2022/01/19 04:31:35;;;;;;;3.97;1.75;;;19.90;53.10;;;;;;5011900;28;20486;-60
2022/01/19 04:34:04;;;;;;;5.18;2.25;;;19.90;53.00;;;;;;5012639;28;20046;-59
2022/01/19 04:36:59;;;;;;;4.70;2.08;;;19.90;53.00;;;;;;5012435;28;20123;-59
2022/01/19 04:43:47;;;;;;;4.47;1.80;;;20.00;53.00;;;;;;5011512;28;20053;-59
2022/01/19 05:06:30;;;;;;;3.30;1.70;;;20.00;52.70;;;;;;4972321;28;20047;-60
2022/01/19 05:09:07;;;;;;;3.78;2.00;;;20.10;52.80;;;;;;4972979;28;20051;-59
2022/01/19 05:14:16;;;;;;;3.67;1.83;;;20.10;52.80;;;;;;4972457;28;20399;-60
2022/01/19 05:16:42;;;;;;;2.97;1.80;;;20.00;52.70;;;;;;4972569;28;20492;-59
2022/01/19 05:19:07;;;;;;;3.17;1.83;;;20.10;52.70;;;;;;4976263;28;20042;-59
2022/01/19 05:21:33;;;;;;;2.75;1.65;;;20.00;52.60;;;;;;4976283;28;20038;-59
2022/01/19 05:24:04;;;;;;;4.50;2.00;;;20.10;52.60;;;;;;4977388;28;20113;-59
2022/01/19 05:26:30;;;;;;;3.63;1.70;;;20.10;52.60;;;;;;4976821;28;20059;-59
2022/01/19 05:28:55;;;;;;;5.00;2.10;;;20.10;52.60;;;;;;4976469;28;20043;-60
2022/01/19 05:31:21;;;;;;;4.13;2.08;;;20.10;52.60;;;;;;4976708;28;20054;-59
2022/01/19 05:33:46;;;;;;;3.22;1.63;;;20.10;52.50;;;;;;4977011;28;20047;-60
2022/01/19 05:36:12;;;;;;;4.68;2.03;;;20.10;52.50;;;;;;4975851;28;20101;-60
2022/01/19 05:38:37;;;;;;;4.40;1.98;;;20.10;52.50;;;;;;4976867;28;20038;-59
2022/01/19 05:41:03;;;;;;;3.60;1.73;;;20.10;52.40;;;;;;4976691;28;20043;-59
2022/01/19 05:43:28;;;;;;;4.32;1.80;;;20.20;52.50;;;;;;4975255;28;20049;-60
2022/01/19 05:45:54;;;;;;;3.45;1.80;;;20.20;52.40;;;;;;4976837;28;20046;-60
2022/01/19 05:48:20;;;;;;;4.32;1.75;;;20.10;52.40;;;;;;4976441;28;20055;-59
2022/01/19 05:50:45;;;;;;;4.45;2.13;;;20.10;52.30;;;;;;4976108;28;20491;-60
2022/01/19 05:53:11;;;;;;;5.13;1.90;;;20.10;52.30;;;;;;4976810;28;20398;-59
2022/01/19 05:55:36;;;;;;;3.80;1.90;;;20.10;52.30;;;;;;4976626;28;20039;-59
2022/01/19 05:58:02;;;;;;;4.75;2.17;;;20.20;52.40;;;;;;4976958;28;20053;-60
2022/01/19 06:00:27;;;;;;;3.75;1.85;;;20.10;52.20;;;;;;5025666;28;20053;-60
2022/01/19 06:02:53;;;;;;;4.50;1.83;;;20.10;52.20;;;;;;5034512;28;20141;-60
2022/01/19 06:05:18;;;;;;;4.88;2.22;;;20.20;52.30;;;;;;5033462;28;20120;-60
2022/01/19 06:07:46;;;;;;;3.25;1.65;;;20.20;52.20;;;;;;5035216;28;20046;-59
2022/01/19 06:10:42;;;;;;;3.67;1.80;;;20.10;52.20;;;;;;5021538;28;20049;-60
2022/01/19 06:12:58;;;;;;;4.68;2.13;;;20.20;52.20;;;;;;5015290;28;20120;-59
2022/01/19 06:15:23;;;;;;;3.80;2.17;;;20.20;52.20;;;;;;5015033;28;20184;-60
2022/01/19 06:17:49;;;;;;;3.60;2.20;;;20.20;52.10;;;;;;5014484;28;20509;-59
2022/01/19 06:20:14;;;;;;;4.40;2.05;;;20.20;52.10;;;;;;5014085;28;20054;-59
2022/01/19 06:22:40;;;;;;;4.07;2.00;;;20.20;52.10;;;;;;5015166;28;20096;-61
2022/01/19 06:25:06;;;;;;;3.95;2.20;;;20.20;52.00;;;;;;5014485;28;20135;-60
2022/01/19 06:27:32;;;;;;;4.70;1.90;;;20.20;52.00;;;;;;5014560;28;20506;-59
2022/01/19 06:29:57;;;;;;;4.97;2.22;;;20.20;52.00;;;;;;5029802;28;20044;-60
2022/01/19 06:32:22;;;;;;;4.35;2.08;;;20.20;52.00;;;;;;5033676;28;20516;-60
2022/01/19 06:34:48;;;;;;;6.05;2.45;;;20.20;52.00;;;;;;5034705;28;20046;-59
2022/01/19 06:37:13;;;;;;;4.10;2.03;;;20.20;51.80;;;;;;5034067;28;20041;-60
2022/01/19 06:39:39;;;;;;;4.25;2.28;;;20.30;51.80;;;;;;5033960;28;20096;-60
2022/01/19 06:42:05;;;;;;;4.57;2.25;;;20.20;51.80;;;;;;5034806;28;20045;-60
2022/01/19 06:44:30;;;;;;;5.63;2.40;;;20.20;51.80;;;;;;5034401;28;20042;-60
2022/01/19 06:46:56;;;;;;;5.10;2.08;;;20.20;51.80;;;;;;5033835;28;20055;-60
2022/01/19 06:49:21;;;;;;;4.68;2.45;;;20.30;51.80;;;;;;5034119;28;20045;-60
2022/01/19 06:51:47;;;;;;;4.70;2.47;;;20.30;51.80;;;;;;5034504;28;20049;-60
2022/01/19 06:54:12;;;;;;;3.97;2.80;;;20.30;51.80;;;;;;5033435;28;20091;-59
2022/01/19 06:56:38;;;;;;;3.72;2.30;;;20.30;51.80;;;;;;5034117;28;20103;-59
2022/01/19 06:59:04;;;;;;;4.78;2.70;;;20.30;51.70;;;;;;5033525;28;20071;-60
2022/01/19 07:01:32;;;;;;;7.28;2.58;;;20.30;51.80;;;;;;5026173;28;20052;-59
2022/01/19 07:04:01;;;;;;;4.57;2.30;;;20.30;51.80;;;;;;5030369;28;20054;-59
2022/01/19 07:06:26;;;;;;;4.60;2.22;;;20.30;51.90;;;;;;5032734;28;20077;-59
2022/01/19 07:08:52;;;;;;;5.55;2.72;;;20.30;51.90;;;;;;5034071;28;20085;-59
2022/01/19 07:11:17;;;;;;;5.50;2.75;;;20.30;52.00;;;;;;5031492;28;20040;-59
2022/01/19 07:13:43;;;;;;;5.05;2.58;;;20.40;52.10;;;;;;5023765;28;20488;-59
2022/01/19 07:16:08;;;;;;;4.03;2.58;;;20.40;52.20;;;;;;5033903;28;20431;-60
2022/01/19 07:18:34;;;;;;;5.65;2.60;;;20.30;52.30;;;;;;5033145;28;20458;-59
2022/01/19 07:20:59;;;;;;;4.95;2.80;;;20.40;52.50;;;;;;5031647;28;20053;-59
2022/01/19 07:23:25;;;;;;;4.50;2.47;;;20.40;52.70;;;;;;5033734;28;20044;-60
2022/01/19 07:25:50;;;;;;;5.50;2.80;;;20.40;52.80;;;;;;5033967;28;20396;-59
2022/01/19 07:28:16;;;;;;;5.30;2.72;;;20.40;52.90;;;;;;5032743;28;20045;-60
2022/01/19 07:30:41;;;;;;;4.97;2.40;;;20.40;53.00;;;;;;5033689;28;20041;-60
2022/01/19 07:33:07;;;;;;;4.63;2.13;;;20.40;53.00;;;;;;5031877;28;20187;-60
2022/01/19 07:35:32;;;;;;;4.82;2.30;;;20.40;53.10;;;;;;5032460;28;20045;-60
2022/01/19 07:37:58;;;;;;;3.45;2.17;;;20.50;53.20;;;;;;5032745;28;20056;-60
2022/01/19 07:40:23;;;;;;;4.72;2.50;;;20.50;53.20;;;;;;5031110;28;20120;-60
2022/01/19 07:42:49;;;;;;;5.00;2.45;;;20.50;53.30;;;;;;5032767;28;20045;-60
2022/01/19 07:45:15;;;;;;;5.03;2.33;;;20.50;53.30;;;;;;5033202;28;20038;-60
2022/01/19 07:47:40;;;;;;;4.45;2.53;;;20.50;53.30;;;;;;5033017;28;20053;-59
2022/01/19 07:50:07;;;;;;;5.53;2.47;;;20.50;53.40;;;;;;5031526;28;20037;-59
2022/01/19 07:52:32;;;;;;;6.38;2.47;;;20.50;53.40;;;;;;5033021;28;20077;-59
2022/01/19 07:54:58;;;;;;;5.40;2.58;;;20.50;53.30;;;;;;5032807;28;20096;-59
2022/01/19 07:57:23;;;;;;;5.30;2.55;;;20.50;53.20;;;;;;5032129;28;20049;-60
2022/01/19 07:59:49;;;;;;;5.47;2.80;;;20.50;53.20;;;;;;5018306;28;20061;-59
2022/01/19 08:02:16;;;;;;;5.53;2.30;;;20.50;53.30;;;;;;5012740;28;20505;-59
2022/01/19 08:04:41;;;;;;;6.13;2.47;;;20.50;53.30;;;;;;5011711;28;20141;-59
2022/01/19 08:07:07;;;;;;;6.72;2.80;;;20.50;53.40;;;;;;5012977;28;20549;-60
2022/01/19 08:09:33;;;;;;;5.32;2.75;;;20.50;53.50;;;;;;5011497;28;20054;-58
2022/01/19 08:11:59;;;;;;;4.85;2.67;;;20.60;53.50;;;;;;5013100;28;20474;-59
2022/01/19 08:14:24;;;;;;;4.28;2.40;;;20.60;53.50;;;;;;5012779;28;20061;-59
2022/01/19 08:16:56;;;;;;;4.10;2.20;;;20.60;53.50;;;;;;5024119;28;20047;-59
2022/01/19 08:19:22;;;;;;;5.55;2.90;;;20.60;53.40;;;;;;5031169;28;20187;-59
2022/01/19 08:21:47;;;;;;;5.63;2.45;;;20.60;53.30;;;;;;5033119;28;20492;-60
2022/01/19 08:24:13;;;;;;;6.38;2.20;;;20.60;53.30;;;;;;5030742;28;20049;-60
2022/01/19 08:26:38;;;;;;;4.60;2.53;;;20.60;53.30;;;;;;5014025;28;20049;-60
2022/01/19 08:29:07;;;;;;;5.45;2.85;;;20.60;53.20;;;;;;5013052;28;20052;-59
2022/01/19 08:31:33;;;;;;;5.20;2.65;;;20.60;53.10;;;;;;5011841;28;20137;-59
2022/01/19 08:33:59;;;;;;;4.18;2.40;;;20.60;52.80;;;;;;5012669;28;20116;-59
2022/01/19 08:36:24;;;;;;;4.15;2.38;;;20.60;52.70;;;;;;5012095;28;20497;-59
2022/01/19 08:38:50;;;;;;;5.07;2.50;;;20.50;52.60;;;;;;5011411;28;20061;-60
2022/01/19 08:41:15;;;;;;;5.97;2.70;;;20.50;52.60;;;;;;5021529;28;20037;-60
2022/01/19 08:43:41;;;;;;;4.18;2.65;;;20.60;52.60;;;;;;5023309;28;20493;-60
2022/01/19 08:46:06;;;;;;;6.30;2.67;;;20.60;52.50;;;;;;5011817;28;20053;-60
2022/01/19 08:48:32;;;;;;;8.80;3.28;;;20.50;52.40;;;;;;5012028;28;20050;-60
2022/01/19 08:50:58;;;;;;;6.13;2.70;;;20.50;52.50;;;;;;5012593;28;20145;-60
2022/01/19 08:53:23;;;;;;;6.32;2.60;;;20.50;52.40;;;;;;5013436;28;20096;-59
2022/01/19 08:55:49;;;;;;;6.63;3.20;;;20.50;52.40;;;;;;5030832;28;20045;-59
2022/01/19 08:58:14;;;;;;;6.47;3.10;;;20.50;52.30;;;;;;5016391;28;20080;-60
2022/01/19 09:00:41;;;;;;;7.20;3.47;;;20.60;52.40;;;;;;5015680;28;20105;-60
2022/01/19 09:03:07;;;;;;;7.32;3.30;;;20.50;52.30;;;;;;5033779;28;20049;-60
2022/01/19 09:05:33;;;;;;;7.05;3.17;;;20.50;52.30;;;;;;5035982;28;20056;-60
2022/01/19 09:07:58;;;;;;;5.35;2.92;;;20.50;52.20;;;;;;5034881;28;20045;-60
2022/01/19 09:10:25;;;;;;;6.22;3.50;;;20.50;52.10;;;;;;5021483;28;20045;-60
2022/01/19 09:12:50;;;;;;;6.63;3.28;;;20.50;52.10;;;;;;5015904;28;20050;-60
2022/01/19 09:15:18;;;;;;;5.22;3.00;;;20.50;52.10;;;;;;5015569;28;20046;-60
2022/01/19 09:17:43;;;;;;;5.20;3.07;;;20.50;52.00;;;;;;5016271;28;20415;-60
2022/01/19 09:20:09;;;;;;;5.78;2.85;;;20.50;52.00;;;;;;5015657;28;20343;-60
2022/01/19 09:22:35;;;;;;;5.82;3.03;;;20.50;52.00;;;;;;5022452;28;20042;-60
2022/01/19 09:25:01;;;;;;;5.20;2.92;;;20.50;52.00;;;;;;5035464;28;20049;-60
2022/01/19 09:27:27;;;;;;;5.07;3.20;;;20.60;52.00;;;;;;5034783;28;20543;-60
2022/01/19 09:29:52;;;;;;;8.73;3.92;;;20.50;51.90;;;;;;5035380;28;20037;-60
2022/01/19 09:32:18;;;;;;;7.22;3.70;;;20.50;52.60;;;;;;5035123;28;20057;-60
2022/01/19 09:34:49;;;;;;;7.32;3.55;;;20.50;51.80;;;;;;5034479;28;20041;-60
2022/01/19 09:37:16;;;;;;;8.15;3.47;;;20.50;51.80;;;;;;5019895;28;20049;-60
2022/01/19 09:39:41;;;;;;;5.50;3.17;;;20.50;51.80;;;;;;5016116;28;20049;-60
2022/01/19 09:42:07;;;;;;;7.18;3.20;;;20.50;51.80;;;;;;5015235;28;20037;-60
2022/01/19 09:44:32;;;;;;;6.18;3.20;;;20.50;51.70;;;;;;5015624;28;20413;-60
2022/01/19 09:46:59;;;;;;;5.50;3.10;;;20.50;51.70;;;;;;5026415;28;20507;-60
2022/01/19 09:49:25;;;;;;;6.57;3.28;;;20.50;51.70;;;;;;5033393;28;20073;-60
2022/01/19 09:51:51;;;;;;;5.72;3.08;;;20.50;51.70;;;;;;5035748;28;20077;-59
2022/01/19 09:54:18;;;;;;;6.22;3.22;;;20.50;51.70;;;;;;5033981;28;20046;-60
2022/01/19 09:56:44;;;;;;;7.60;3.42;;;20.50;51.70;;;;;;5033550;28;20535;-60
2022/01/19 09:59:13;;;;;;;5.28;3.15;;;20.50;51.70;;;;;;5034223;28;20093;-59
2022/01/19 10:01:48;;;;;;;5.85;2.80;;;20.50;51.50;;;;;;5026026;28;20473;-60
2022/01/19 10:04:24;;;;;;;6.78;3.45;;;20.50;51.50;;;;;;5020365;28;20041;-60
2022/01/19 10:07:17;;;;;;;5.72;3.35;;;20.60;51.50;;;;;;5029424;28;20268;-60
2022/01/19 10:10:06;;;;;;;7.68;3.47;;;20.50;51.50;;;;;;5011459;28;20434;-60
2022/01/19 10:18:22;;;;;;;9.82;5.30;;;20.50;50.60;;;;;;5013896;28;20053;-60
2022/01/19 10:21:12;;;;;;;9.05;5.45;;;20.50;50.40;;;;;;5015214;28;20037;-60
2022/01/19 10:23:41;;;;;;;8.57;5.45;;;20.50;49.80;;;;;;5014334;28;20088;-60
2022/01/19 10:26:12;;;;;;;7.82;5.15;;;20.50;49.90;;;;;;5015002;28;20125;-60
2022/01/19 10:29:01;;;;;;;8.13;4.55;;;20.50;49.80;;;;;;5014787;28;20053;-60
2022/01/19 10:31:27;;;;;;;6.75;4.18;;;20.50;49.80;;;;;;5014011;28;20053;-59
2022/01/19 10:34:19;;;;;;;7.22;4.47;;;20.50;49.90;;;;;;5014936;28;20048;-60
2022/01/19 10:36:52;;;;;;;6.65;4.10;;;20.50;50.00;;;;;;5014535;28;20089;-60
2022/01/19 10:39:18;;;;;;;7.47;3.88;;;20.50;50.10;;;;;;5013962;28;20516;-60
2022/01/19 10:42:03;;;;;;;7.28;3.83;;;20.50;50.10;;;;;;5015023;28;20126;-60
2022/01/19 10:44:40;;;;;;;7.10;4.00;;;20.50;50.20;;;;;;4996094;28;20050;-60
2022/01/19 10:47:06;;;;;;;7.93;4.40;;;20.50;50.20;;;;;;5014261;28;20124;-60
2022/01/19 10:49:50;;;;;;;8.07;4.10;;;20.50;50.20;;;;;;5023869;28;20455;-60
2022/01/19 10:52:37;;;;;;;7.38;3.88;;;20.60;50.30;;;;;;5014578;28;20049;-60
2022/01/19 10:55:04;;;;;;;7.88;3.50;;;20.60;50.40;;;;;;5027972;28;20049;-60
2022/01/19 10:57:31;;;;;;;11.65;4.43;;;20.50;50.40;;;;;;5024913;28;20046;-60
2022/01/19 11:00:24;;;;;;;12.55;4.82;;;20.60;50.50;;;;;;5030377;28;20064;-60
2022/01/19 11:02:54;;;;;;;8.25;4.70;;;20.60;51.00;;;;;;5017206;28;20042;-59
2022/01/19 11:05:48;;;;;;;10.63;4.47;;;20.60;51.00;;;;;;5031980;28;20497;-61
2022/01/19 11:08:15;;;;;;;7.90;4.80;;;20.60;51.20;;;;;;5024729;28;20079;-60
2022/01/19 11:10:47;;;;;;;10.98;4.85;;;20.60;51.50;;;;;;5028067;28;20045;-60
2022/01/19 11:13:14;;;;;;;8.43;4.10;;;20.60;51.40;;;;;;5031492;28;20045;-60
2022/01/19 11:15:42;;;;;;;11.32;4.75;;;20.60;51.20;;;;;;5033524;28;20064;-60
2022/01/19 11:18:07;;;;;;;8.73;4.87;;;20.60;51.20;;;;;;5033397;28;20053;-60
2022/01/19 11:20:40;;;;;;;7.45;4.60;;;20.60;51.20;;;;;;5032670;28;20124;-60
2022/01/19 11:23:19;;;;;;;9.57;4.82;;;20.60;51.20;;;;;;4999907;28;20505;-60
2022/01/19 11:26:05;;;;;;;8.15;4.50;;;20.60;51.10;;;;;;5016189;28;20127;-60
2022/01/19 11:28:38;;;;;;;10.38;4.97;;;20.60;51.10;;;;;;5032635;28;20049;-59
2022/01/19 11:31:13;;;;;;;9.48;4.78;;;20.60;51.10;;;;;;5033206;28;20480;-60
2022/01/19 11:33:51;;;;;;;10.40;4.97;;;20.70;51.10;;;;;;5032503;28;20075;-60
2022/01/19 11:36:20;;;;;;;9.98;5.25;;;20.60;51.10;;;;;;5033295;28;20543;-60
2022/01/19 11:38:46;;;;;;;;;;;20.60;51.10;;;;;;5032465;28;20053;-60
2022/01/19 11:41:14;;;;;;;9.30;5.70;;;20.60;51.20;;;;;;5024237;28;19931;-60
2022/01/19 11:43:54;;;;;;;9.77;5.57;;;20.60;51.20;;;;;;5033445;28;20110;-61
2022/01/19 11:46:33;;;;;;;9.60;5.47;;;20.60;51.40;;;;;;5033036;28;20120;-60
2022/01/19 11:49:03;;;;;;;11.30;5.63;;;20.60;51.40;;;;;;5031946;28;20050;-61
2022/01/19 11:51:34;;;;;;;10.35;5.35;;;20.60;51.40;;;;;;5032854;28;20041;-60
2022/01/19 11:54:09;;;;;;;10.02;6.28;;;20.60;51.50;;;;;;5033012;28;20401;-61
2022/01/19 11:56:59;;;;;;;12.07;6.53;;;20.70;51.50;;;;;;5032162;28;20045;-60
2022/01/19 11:59:43;;;;;;;9.32;6.28;;;20.70;51.50;;;;;;5032628;28;20569;-61
2022/01/19 12:02:21;;;;;;;12.15;6.40;;;20.70;51.60;;;;;;5032348;28;20045;-61
2022/01/19 12:05:04;;;;;;;11.05;5.93;;;20.70;51.60;;;;;;5032893;28;20048;-61
2022/01/19 12:07:57;;;;;;;10.48;6.38;;;20.70;51.70;;;;;;5032678;28;20049;-61
2022/01/19 12:10:30;;;;;;;12.10;6.10;;;20.70;51.80;;;;;;5031640;28;20041;-60
2022/01/19 12:13:54;;;;;;;8.77;6.47;;;20.70;51.90;;;;;;5015285;28;20053;-61
2022/01/19 12:19:08;;;;;;;11.82;6.20;;;20.70;52.00;;;;;;5032392;28;20077;-61
2022/01/19 12:21:34;;;;;;;10.77;6.57;;;20.70;52.00;;;;;;5032406;28;20037;-61
2022/01/19 12:24:15;;;;;;;12.05;7.05;;;20.70;52.00;;;;;;5031723;28;20488;-61
2022/01/19 12:27:13;;;;;;;13.07;7.15;;;20.70;52.00;;;;;;5020282;28;20057;-60
2022/01/19 12:29:40;;;;;;;12.88;7.10;;;20.70;51.90;;;;;;4981717;28;20061;-63
2022/01/19 12:32:09;;;;;;;11.50;6.97;;;20.70;51.90;;;;;;5018316;28;20049;-60
2022/01/19 12:34:48;;;;;;;12.00;6.95;;;20.70;51.90;;;;;;5031827;28;20473;-60
2022/01/19 12:37:37;;;;;;;11.60;6.70;;;20.70;51.80;;;;;;5031127;28;20050;-61
2022/01/19 12:40:18;;;;;;;12.00;6.82;;;20.70;51.70;;;;;;5011894;28;20045;-62
2022/01/19 12:42:54;;;;;;;11.68;6.75;;;20.70;51.60;;;;;;5022819;28;20073;-61
2022/01/19 12:45:21;;;;;;;11.15;6.95;;;20.70;51.70;;;;;;5021846;28;20057;-61
2022/01/19 12:47:49;;;;;;;11.10;7.20;;;20.70;51.60;;;;;;5021007;28;20076;-60
2022/01/19 12:50:17;;;;;;;12.60;7.22;;;20.70;51.60;;;;;;5022522;28;20468;-60
2022/01/19 12:52:43;;;;;;;12.32;7.45;;;20.70;51.50;;;;;;5021931;28;20046;-60
2022/01/19 12:55:21;;;;;;;11.18;7.60;;;20.70;51.40;;;;;;5021121;28;20042;-60
2022/01/19 12:57:47;;;;;;;13.18;7.45;;;20.70;51.40;;;;;;5020146;28;20054;-60
2022/01/19 13:00:18;;;;;;;11.68;7.30;;;20.70;51.40;;;;;;5021978;28;20072;-61
2022/01/19 13:02:43;;;;;;;12.95;7.75;;;20.70;51.30;;;;;;5022650;28;20046;-60
2022/01/19 13:05:12;;;;;;;12.98;7.80;;;20.70;51.20;;;;;;5019926;28;20053;-60
2022/01/19 13:07:38;;;;;;;;;;;20.70;51.10;;;;;;5019662;28;20034;-60
2022/01/19 13:10:24;;;;;;;11.05;7.65;;;20.70;51.20;;;;;;5019567;28;19921;-61
2022/01/19 13:13:07;;;;;;;13.93;8.13;;;20.70;51.50;;;;;;5004374;28;20116;-61
2022/01/19 13:15:55;;;;;;;11.27;7.90;;;20.70;51.60;;;;;;5020144;28;20045;-60
2022/01/19 13:18:42;;;;;;;12.70;8.00;;;20.70;51.80;;;;;;5021548;28;20497;-61
2022/01/19 13:21:13;;;;;;;11.82;7.82;;;20.70;51.70;;;;;;5022133;28;20046;-61
2022/01/19 13:24:00;;;;;;;11.32;7.20;;;20.80;51.80;;;;;;5021618;28;20045;-61
2022/01/19 13:26:37;;;;;;;12.35;7.55;;;20.80;52.00;;;;;;5021817;28;20042;-61
2022/01/19 13:29:20;;;;;;;12.98;8.18;;;20.80;51.90;;;;;;5024049;28;20465;-61
2022/01/19 13:31:59;;;;;;;13.52;8.05;;;20.80;52.00;;;;;;5022408;28;20042;-61
2022/01/19 13:34:25;;;;;;;11.23;7.45;;;20.80;51.90;;;;;;5021517;28;20053;-61
2022/01/19 13:36:55;;;;;;;10.45;7.90;;;20.80;51.80;;;;;;5020448;28;20046;-61
2022/01/19 13:39:22;;;;;;;12.00;7.70;;;20.80;51.90;;;;;;5022759;28;20033;-61
2022/01/19 13:41:50;;;;;;;12.57;7.28;;;20.80;51.90;;;;;;5025356;28;20417;-61
2022/01/19 13:44:20;;;;;;;12.18;7.88;;;20.80;51.90;;;;;;5024516;28;20076;-61
2022/01/19 13:46:46;;;;;;;11.40;7.50;;;20.80;51.70;;;;;;5024607;28;20111;-61
2022/01/19 13:49:11;;;;;;;11.75;7.53;;;20.80;51.80;;;;;;5022048;28;20410;-61
2022/01/19 13:51:40;;;;;;;11.77;7.90;;;20.80;51.80;;;;;;5015558;28;20046;-61
2022/01/19 13:54:06;;;;;;;9.70;7.35;;;20.80;51.90;;;;;;4997963;28;20104;-60
2022/01/19 13:56:39;;;;;;;10.50;7.65;;;20.80;51.80;;;;;;5022417;28;20273;-61
2022/01/19 13:59:14;;;;;;;11.20;7.28;;;20.80;51.90;;;;;;5024161;28;20132;-60
2022/01/19 14:01:59;;;;;;;12.00;7.63;;;20.90;52.10;;;;;;5023376;28;20088;-60
2022/01/19 14:04:28;;;;;;;13.07;8.02;;;20.80;52.00;;;;;;5022873;28;20042;-60
2022/01/19 14:07:02;;;;;;;11.75;7.90;;;20.80;52.00;;;;;;5025220;28;20077;-60
2022/01/19 14:09:31;;;;;;;11.48;8.00;;;20.90;52.10;;;;;;5024859;28;20049;-60
2022/01/19 14:12:11;;;;;;;11.40;7.88;;;20.90;52.10;;;;;;5025846;28;20041;-61
2022/01/19 14:14:42;;;;;;;12.57;8.13;;;20.90;52.20;;;;;;5031069;28;20503;-61
2022/01/19 14:17:23;;;;;;;12.07;7.93;;;20.90;52.10;;;;;;5034288;28;20045;-61
2022/01/19 14:19:49;;;;;;;11.23;8.25;;;20.90;52.10;;;;;;5034534;28;20081;-61